sensor_id;sensor_type;location;lat;lon;timestamp;temperature;humidity
15615;DHT22;7907;51.368;6.730;2023-04-15T06:12:20;8.70;99.90
15615;DHT22;7907;51.368;6.730;2023-04-15T06:15:18;8.80;99.90
15615;DHT22;7907;51.368;6.730;2023-04-15T06:35:14;9.40;99.90
15615;DHT22;7907;51.368;6.730;2023-04-15T06:40:50;9.60;99.90
15615;DHT22;7907;51.368;6.730;2023-04-15T06:43:35;9.60;99.90
15615;DHT22;7907;51.368;6.730;2023-04-15T06:50:25;9.80;99.90
15615;DHT22;7907;51.368;6.730;2023-04-15T07:32:28;11.70;99.90
15615;DHT22;7907;51.368;6.730;2023-04-15T07:36:49;11.80;99.90
15615;DHT22;7907;51.368;6.730;2023-04-15T07:39:12;11.90;99.90
15615;DHT22;7907;51.368;6.730;2023-04-15T08:01:40;12.60;99.90
15615;DHT22;7907;51.368;6.730;2023-04-15T08:04:46;12.60;99.90
15615;DHT22;7907;51.368;6.730;2023-04-15T08:10:47;12.70;99.90
15615;DHT22;7907;51.368;6.730;2023-04-15T08:30:45;13.30;99.90
15615;DHT22;7907;51.368;6.730;2023-04-15T08:33:28;13.40;99.90
15615;DHT22;7907;51.368;6.730;2023-04-15T08:36:20;13.50;99.90
15615;DHT22;7907;51.368;6.730;2023-04-15T08:39:02;13.60;99.90
15615;DHT22;7907;51.368;6.730;2023-04-15T08:41:38;13.60;99.90
15615;DHT22;7907;51.368;6.730;2023-04-15T08:44:43;13.70;99.90
15615;DHT22;7907;51.368;6.730;2023-04-15T08:54:39;13.60;99.90
15615;DHT22;7907;51.368;6.730;2023-04-15T08:57:09;13.70;99.90
15615;DHT22;7907;51.368;6.730;2023-04-15T08:59:55;13.70;99.90
15615;DHT22;7907;51.368;6.730;2023-04-15T09:02:54;13.80;99.90
15615;DHT22;7907;51.368;6.730;2023-04-15T09:05:50;13.80;99.90
15615;DHT22;7907;51.368;6.730;2023-04-15T09:08:32;13.80;99.90
15615;DHT22;7907;51.368;6.730;2023-04-15T09:11:39;13.80;99.90
15615;DHT22;7907;51.368;6.730;2023-04-15T09:14:26;13.90;99.90
15615;DHT22;7907;51.368;6.730;2023-04-15T09:20:55;14.30;99.90
15615;DHT22;7907;51.368;6.730;2023-04-15T09:23:35;14.20;98.00
15615;DHT22;7907;51.368;6.730;2023-04-15T09:29:38;14.20;98.60
15615;DHT22;7907;51.368;6.730;2023-04-15T09:53:20;14.80;98.20
15615;DHT22;7907;51.368;6.730;2023-04-15T09:57:25;15.00;97.60
15615;DHT22;7907;51.368;6.730;2023-04-15T09:59:14;15.00;96.80
15615;DHT22;7907;51.368;6.730;2023-04-15T10:01:42;15.30;96.60
15615;DHT22;7907;51.368;6.730;2023-04-15T10:04:19;15.40;96.20
15615;DHT22;7907;51.368;6.730;2023-04-15T10:07:06;15.40;95.20
15615;DHT22;7907;51.368;6.730;2023-04-15T10:10:22;15.30;95.60
15615;DHT22;7907;51.368;6.730;2023-04-15T10:12:56;15.40;95.90
15615;DHT22;7907;51.368;6.730;2023-04-15T10:19:03;15.70;95.10
15615;DHT22;7907;51.368;6.730;2023-04-15T10:22:14;15.90;94.90
15615;DHT22;7907;51.368;6.730;2023-04-15T10:46:00;16.00;93.40
15615;DHT22;7907;51.368;6.730;2023-04-15T10:48:34;15.80;93.80
15615;DHT22;7907;51.368;6.730;2023-04-15T10:58:28;15.90;95.30
15615;DHT22;7907;51.368;6.730;2023-04-15T11:48:13;14.10;99.90
15615;DHT22;7907;51.368;6.730;2023-04-15T12:02:49;13.90;99.90
15615;DHT22;7907;51.368;6.730;2023-04-15T12:04:40;13.70;99.90
15615;DHT22;7907;51.368;6.730;2023-04-15T12:07:25;13.70;99.90
15615;DHT22;7907;51.368;6.730;2023-04-15T12:09:57;13.80;99.90
15615;DHT22;7907;51.368;6.730;2023-04-15T12:12:50;13.80;99.90
15615;DHT22;7907;51.368;6.730;2023-04-15T12:15:30;13.50;99.90
15615;DHT22;7907;51.368;6.730;2023-04-15T12:18:20;13.50;99.90
15615;DHT22;7907;51.368;6.730;2023-04-15T12:24:29;13.30;99.90
15615;DHT22;7907;51.368;6.730;2023-04-15T12:27:20;13.10;99.90
15615;DHT22;7907;51.368;6.730;2023-04-15T12:30:16;13.10;99.90
15615;DHT22;7907;51.368;6.730;2023-04-15T12:32:51;13.10;99.90
15615;DHT22;7907;51.368;6.730;2023-04-15T12:41:23;12.90;99.90
15615;DHT22;7907;51.368;6.730;2023-04-15T12:54:51;13.00;99.90
15615;DHT22;7907;51.368;6.730;2023-04-15T12:57:26;13.00;99.90
15615;DHT22;7907;51.368;6.730;2023-04-15T13:00:07;13.10;99.90
15615;DHT22;7907;51.368;6.730;2023-04-15T13:02:50;13.10;99.90
15615;DHT22;7907;51.368;6.730;2023-04-15T13:05:37;13.20;99.90
15615;DHT22;7907;51.368;6.730;2023-04-15T13:08:05;13.20;99.90
15615;DHT22;7907;51.368;6.730;2023-04-15T13:10:40;13.20;99.90
15615;DHT22;7907;51.368;6.730;2023-04-15T13:13:38;13.20;99.90
15615;DHT22;7907;51.368;6.730;2023-04-15T13:16:35;13.20;99.90
15615;DHT22;7907;51.368;6.730;2023-04-15T13:19:26;13.10;99.90
15615;DHT22;7907;51.368;6.730;2023-04-15T13:22:08;12.90;99.90
15615;DHT22;7907;51.368;6.730;2023-04-15T13:24:49;12.80;99.90
15615;DHT22;7907;51.368;6.730;2023-04-15T13:27:20;12.80;99.90
15615;DHT22;7907;51.368;6.730;2023-04-15T13:29:50;12.70;99.90
15615;DHT22;7907;51.368;6.730;2023-04-15T13:32:27;12.70;99.90
15615;DHT22;7907;51.368;6.730;2023-04-15T13:35:08;12.70;99.90
15615;DHT22;7907;51.368;6.730;2023-04-15T13:37:49;12.80;99.90
15615;DHT22;7907;51.368;6.730;2023-04-15T13:40:19;12.80;99.90
15615;DHT22;7907;51.368;6.730;2023-04-15T13:42:48;12.90;99.90
15615;DHT22;7907;51.368;6.730;2023-04-15T13:45:38;12.90;99.90
15615;DHT22;7907;51.368;6.730;2023-04-15T13:48:06;12.90;99.90
15615;DHT22;7907;51.368;6.730;2023-04-15T13:50:39;12.90;99.90
15615;DHT22;7907;51.368;6.730;2023-04-15T13:55:54;13.00;99.90
15615;DHT22;7907;51.368;6.730;2023-04-15T13:58:25;13.00;99.90
15615;DHT22;7907;51.368;6.730;2023-04-15T14:01:03;13.10;99.90
15615;DHT22;7907;51.368;6.730;2023-04-15T14:03:36;13.00;99.90
15615;DHT22;7907;51.368;6.730;2023-04-15T14:06:06;13.00;99.90
15615;DHT22;7907;51.368;6.730;2023-04-15T14:08:41;13.10;99.90
15615;DHT22;7907;51.368;6.730;2023-04-15T14:11:22;13.10;99.90
15615;DHT22;7907;51.368;6.730;2023-04-15T14:14:08;13.20;99.90
15615;DHT22;7907;51.368;6.730;2023-04-15T14:17:08;13.20;99.90
15615;DHT22;7907;51.368;6.730;2023-04-15T14:19:46;13.20;99.90
15615;DHT22;7907;51.368;6.730;2023-04-15T14:22:16;13.10;99.90
15615;DHT22;7907;51.368;6.730;2023-04-15T14:24:44;13.10;99.90
15615;DHT22;7907;51.368;6.730;2023-04-15T14:27:14;13.10;99.90
15615;DHT22;7907;51.368;6.730;2023-04-15T14:29:55;13.10;99.90
15615;DHT22;7907;51.368;6.730;2023-04-15T14:32:26;13.10;99.90
15615;DHT22;7907;51.368;6.730;2023-04-15T14:34:56;13.10;99.90
15615;DHT22;7907;51.368;6.730;2023-04-15T14:37:27;13.00;99.90
15615;DHT22;7907;51.368;6.730;2023-04-15T14:39:57;13.10;99.90
15615;DHT22;7907;51.368;6.730;2023-04-15T14:42:29;13.10;99.90
15615;DHT22;7907;51.368;6.730;2023-04-15T14:44:59;13.20;99.90
15615;DHT22;7907;51.368;6.730;2023-04-15T14:47:32;13.30;99.90
15615;DHT22;7907;51.368;6.730;2023-04-15T14:50:29;13.30;99.90
15615;DHT22;7907;51.368;6.730;2023-04-15T14:53:06;13.20;99.90
15615;DHT22;7907;51.368;6.730;2023-04-15T14:55:46;13.10;99.90
15615;DHT22;7907;51.368;6.730;2023-04-15T14:58:18;13.00;99.90
15615;DHT22;7907;51.368;6.730;2023-04-15T15:01:02;12.90;99.90
15615;DHT22;7907;51.368;6.730;2023-04-15T15:04:10;12.90;99.90
15615;DHT22;7907;51.368;6.730;2023-04-15T15:06:54;12.80;99.90
15615;DHT22;7907;51.368;6.730;2023-04-15T15:09:28;12.80;99.90
15615;DHT22;7907;51.368;6.730;2023-04-15T15:15:29;12.70;99.90
15615;DHT22;7907;51.368;6.730;2023-04-15T15:17:57;12.60;99.90
15615;DHT22;7907;51.368;6.730;2023-04-15T15:20:30;12.60;99.90
15615;DHT22;7907;51.368;6.730;2023-04-15T15:23:15;12.50;99.90
15615;DHT22;7907;51.368;6.730;2023-04-15T15:25:53;12.50;99.90
15615;DHT22;7907;51.368;6.730;2023-04-15T15:35:21;12.30;99.90
15615;DHT22;7907;51.368;6.730;2023-04-15T15:38:14;12.30;99.90
15615;DHT22;7907;51.368;6.730;2023-04-15T15:41:00;12.20;99.90
15615;DHT22;7907;51.368;6.730;2023-04-15T15:47:10;12.10;99.90
15615;DHT22;7907;51.368;6.730;2023-04-15T15:52:33;12.10;99.90
15615;DHT22;7907;51.368;6.730;2023-04-15T15:55:10;12.10;99.90
15615;DHT22;7907;51.368;6.730;2023-04-15T16:01:06;12.00;99.90
15615;DHT22;7907;51.368;6.730;2023-04-15T16:06:30;12.00;99.90
15615;DHT22;7907;51.368;6.730;2023-04-15T16:09:12;11.90;99.90
15615;DHT22;7907;51.368;6.730;2023-04-15T16:12:03;11.70;99.90
15615;DHT22;7907;51.368;6.730;2023-04-15T16:15:02;11.70;99.90
15615;DHT22;7907;51.368;6.730;2023-04-15T16:21:09;11.60;99.90
15615;DHT22;7907;51.368;6.730;2023-04-15T16:30:37;11.70;99.90
15615;DHT22;7907;51.368;6.730;2023-04-15T16:33:43;11.60;99.90
15615;DHT22;7907;51.368;6.730;2023-04-15T16:36:26;11.60;99.90
15615;DHT22;7907;51.368;6.730;2023-04-15T16:39:04;11.60;99.90
15615;DHT22;7907;51.368;6.730;2023-04-15T16:44:44;11.50;99.90
15615;DHT22;7907;51.368;6.730;2023-04-15T16:47:41;11.40;99.90
15615;DHT22;7907;51.368;6.730;2023-04-15T16:50:40;11.40;99.90
15615;DHT22;7907;51.368;6.730;2023-04-15T17:00:32;11.00;99.90
15615;DHT22;7907;51.368;6.730;2023-04-15T17:12:00;11.00;99.90
15615;DHT22;7907;51.368;6.730;2023-04-15T17:14:46;11.00;99.90
15615;DHT22;7907;51.368;6.730;2023-04-15T17:21:40;10.90;99.90
15615;DHT22;7907;51.368;6.730;2023-04-15T17:24:33;10.90;99.90
15615;DHT22;7907;51.368;6.730;2023-04-15T17:27:29;10.90;99.90
15615;DHT22;7907;51.368;6.730;2023-04-15T17:30:34;10.80;99.90
15615;DHT22;7907;51.368;6.730;2023-04-15T17:33:38;10.70;99.90
15615;DHT22;7907;51.368;6.730;2023-04-15T17:53:58;10.60;99.90
15615;DHT22;7907;51.368;6.730;2023-04-15T17:56:47;10.60;99.90
15615;DHT22;7907;51.368;6.730;2023-04-15T17:59:18;10.50;99.90
15615;DHT22;7907;51.368;6.730;2023-04-15T18:02:11;10.40;99.90
15615;DHT22;7907;51.368;6.730;2023-04-15T18:04:45;10.40;99.90
15615;DHT22;7907;51.368;6.730;2023-04-15T18:07:20;10.30;99.90
15615;DHT22;7907;51.368;6.730;2023-04-15T18:09:59;10.30;99.90
15615;DHT22;7907;51.368;6.730;2023-04-15T18:12:31;10.20;99.90
15615;DHT22;7907;51.368;6.730;2023-04-15T18:15:15;10.30;99.90
15615;DHT22;7907;51.368;6.730;2023-04-15T18:18:01;10.30;99.90
15615;DHT22;7907;51.368;6.730;2023-04-15T18:20:42;10.20;99.90
15615;DHT22;7907;51.368;6.730;2023-04-15T18:23:13;10.20;99.90
15615;DHT22;7907;51.368;6.730;2023-04-15T18:25:50;10.10;99.90
15615;DHT22;7907;51.368;6.730;2023-04-15T18:28:35;10.10;99.90
15615;DHT22;7907;51.368;6.730;2023-04-15T18:31:16;10.10;99.90
15615;DHT22;7907;51.368;6.730;2023-04-15T18:33:49;10.10;99.90
15615;DHT22;7907;51.368;6.730;2023-04-15T18:36:18;10.10;99.90
15615;DHT22;7907;51.368;6.730;2023-04-15T18:38:46;9.90;99.90
15615;DHT22;7907;51.368;6.730;2023-04-15T18:41:19;9.90;99.90
15615;DHT22;7907;51.368;6.730;2023-04-15T18:43:47;9.80;99.90
15615;DHT22;7907;51.368;6.730;2023-04-15T19:01:37;9.70;99.90
15615;DHT22;7907;51.368;6.730;2023-04-15T21:34:58;9.40;99.90
15615;DHT22;7907;51.368;6.730;2023-04-15T21:41:53;9.40;99.90
15615;DHT22;7907;51.368;6.730;2023-04-15T21:44:38;9.40;99.90
15615;DHT22;7907;51.368;6.730;2023-04-15T21:47:31;9.40;99.90
15615;DHT22;7907;51.368;6.730;2023-04-15T22:04:24;9.40;99.90
15615;DHT22;7907;51.368;6.730;2023-04-15T22:07:25;9.40;99.90
15615;DHT22;7907;51.368;6.730;2023-04-15T22:14:50;9.40;99.90
